Time;durP1;ratioP1;P1;durP2;ratioP2;P2;SDS_P1;SDS_P2;PMS_P1;PMS_P2;Temp;Humidity;BMP_temperature;BMP_pressure;BME280_temperature;BME280_humidity;BME280_pressure;Samples;Min_cycle;Max_cycle;Signal;HPM_P1;HPM_P2
2021/12/06 00:02:21;;;;;;;7.73;5.07;;;;;;;2.28;nan;97715.84;5069178;28;20036;-54
2021/12/06 00:04:47;;;;;;;5.43;4.33;;;;;;;2.22;nan;97704.88;5072710;28;20195;-54
2021/12/06 00:07:16;;;;;;;5.17;4.30;;;;;;;2.33;nan;97712.47;5069323;28;20094;-55
2021/12/06 00:09:41;;;;;;;5.80;3.80;;;;;;;2.22;nan;97708.25;5068110;28;20643;-56
2021/12/06 00:12:08;;;;;;;4.27;3.30;;;;;;;2.19;nan;97710.78;5068600;28;20055;-55
2021/12/06 00:14:37;;;;;;;5.37;3.60;;;;;;;2.22;nan;97705.72;5074584;28;20063;-53
2021/12/06 00:17:08;;;;;;;4.93;3.57;;;;;;;2.24;nan;97706.56;5074226;28;20151;-53
2021/12/06 00:19:35;;;;;;;4.23;3.10;;;;;;;2.19;nan;97712.47;5068434;28;20068;-59
2021/12/06 00:22:05;;;;;;;6.30;3.40;;;;;;;2.24;nan;97708.25;5069460;28;20036;-56
2021/12/06 00:24:31;;;;;;;4.70;4.00;;;;;;;2.19;nan;97712.47;5070983;28;20052;-59
2021/12/06 00:26:57;;;;;;;4.20;3.33;;;;;;;2.17;nan;97719.19;5068602;28;20032;-55
2021/12/06 00:29:23;;;;;;;4.20;3.43;;;;;;;2.16;nan;97728.50;5067684;28;20036;-57
2021/12/06 00:31:50;;;;;;;5.13;3.77;;;;;;;2.18;nan;97720.88;5071234;28;20551;-59
2021/12/06 00:34:16;;;;;;;5.43;3.40;;;;;;;2.11;nan;97722.59;5070724;28;20044;-59
2021/12/06 00:36:52;;;;;;;4.10;3.37;;;;;;;2.17;nan;97727.63;5067468;28;20140;-58
2021/12/06 00:39:21;;;;;;;3.77;3.13;;;;;;;2.20;nan;97721.75;5067940;28;20093;-55
2021/12/06 00:41:47;;;;;;;3.15;2.85;;;;;;;2.13;nan;97732.69;5069991;28;20037;-55
2021/12/06 00:44:14;;;;;;;3.80;3.20;;;;;;;2.11;nan;97729.31;5068628;28;20052;-58
2021/12/06 00:46:40;;;;;;;3.40;3.07;;;;;;;2.13;nan;97740.25;5068050;28;20107;-54
2021/12/06 00:49:07;;;;;;;4.10;3.70;;;;;;;2.14;nan;97739.44;5068616;28;20498;-58
2021/12/06 00:51:34;;;;;;;3.77;2.83;;;;;;;2.10;nan;97747.84;5070724;28;20033;-56
2021/12/06 00:53:59;;;;;;;3.10;2.53;;;;;;;2.16;nan;97747.88;5072343;28;20067;-57
2021/12/06 00:56:25;;;;;;;3.13;2.40;;;;;;;2.18;nan;97746.16;5063846;28;20455;-56
2021/12/06 00:58:50;;;;;;;2.13;2.00;;;;;;;2.11;nan;97744.50;5063881;28;20695;-54
2021/12/06 01:01:16;;;;;;;4.03;2.93;;;;;;;2.14;nan;97755.44;5070325;28;20037;-58
2021/12/06 01:03:43;;;;;;;3.60;3.20;;;;;;;2.15;nan;97748.69;5069684;28;20488;-57
2021/12/06 01:06:11;;;;;;;3.10;2.13;;;;;;;2.13;nan;97750.38;5066980;28;20053;-59
2021/12/06 01:08:37;;;;;;;2.17;1.97;;;;;;;2.15;nan;97756.28;5067899;28;20147;-55
2021/12/06 01:11:04;;;;;;;3.23;2.40;;;;;;;2.15;nan;97758.81;5071355;28;20036;-55
2021/12/06 01:13:31;;;;;;;2.37;2.17;;;;;;;2.15;nan;97754.59;5070904;28;20036;-56
2021/12/06 01:15:57;;;;;;;2.63;1.87;;;;;;;2.13;nan;97763.00;5068162;28;20435;-54
2021/12/06 01:18:23;;;;;;;2.67;2.47;;;;;;;2.18;nan;97763.88;5071373;28;20037;-57
2021/12/06 01:23:49;;;;;;;3.27;1.97;;;;;;;2.14;nan;97762.19;4969712;28;20038;-58
2021/12/06 01:29:08;;;;;;;2.73;2.00;;;;;;;2.15;nan;97777.34;4964501;28;20594;-58
2021/12/06 01:39:49;;;;;;;5.10;3.30;;;;;;;2.10;nan;97779.03;4968939;28;20194;-57
2021/12/06 01:42:16;;;;;;;3.73;3.00;;;;;;;2.15;nan;97772.31;4968049;28;20555;-56
2021/12/06 01:44:45;;;;;;;3.30;2.23;;;;;;;2.16;nan;97765.56;4968670;28;20042;-55
2021/12/06 01:47:15;;;;;;;4.13;2.63;;;;;;;2.21;nan;97764.69;4967240;28;20053;-57
2021/12/06 01:49:59;;;;;;;6.13;2.90;;;;;;;2.20;nan;97768.09;4968425;28;20121;-57
2021/12/06 01:52:29;;;;;;;5.30;3.40;;;;;;;2.14;nan;97769.75;4966427;28;20377;-57
2021/12/06 01:54:56;;;;;;;3.57;3.17;;;;;;;2.12;nan;97776.53;4963409;28;20517;-54
2021/12/06 01:57:24;;;;;;;3.43;2.77;;;;;;;2.15;nan;97781.56;4968713;28;20047;-56
2021/12/06 01:59:49;;;;;;;5.13;3.43;;;;;;;2.13;nan;97773.13;4983619;28;20047;-58
2021/12/06 02:02:15;;;;;;;3.47;2.93;;;;;;;2.12;nan;97769.75;5067110;28;20051;-59
2021/12/06 02:04:42;;;;;;;5.57;3.53;;;;;;;2.11;nan;97762.19;5065766;28;20056;-62
2021/12/06 02:07:13;;;;;;;4.53;2.90;;;;;;;2.19;nan;97768.94;5069376;28;20490;-61
2021/12/06 02:09:39;;;;;;;4.00;3.43;;;;;;;2.20;nan;97769.78;5068699;28;20043;-60
2021/12/06 02:12:05;;;;;;;4.07;3.00;;;;;;;2.11;nan;97780.72;5066072;28;20501;-61
2021/12/06 02:14:46;;;;;;;4.53;3.13;;;;;;;2.15;nan;97774.84;5066701;28;20048;-60
2021/12/06 02:17:21;;;;;;;3.93;3.10;;;;;;;2.23;nan;97777.34;5069485;28;20051;-58
2021/12/06 02:19:54;;;;;;;4.03;2.97;;;;;;;2.19;nan;97786.63;5067934;28;20050;-57
2021/12/06 02:22:26;;;;;;;4.87;3.43;;;;;;;2.31;nan;97780.72;5065330;28;20064;-58
2021/12/06 02:24:55;;;;;;;4.40;3.60;;;;;;;2.24;nan;97779.03;5069069;28;20113;-57
2021/12/06 02:27:23;;;;;;;3.87;3.23;;;;;;;2.24;nan;97781.56;5069063;28;20048;-58
2021/12/06 02:29:50;;;;;;;4.63;3.47;;;;;;;2.22;nan;97770.59;5067895;28;20040;-60
2021/12/06 02:32:17;;;;;;;4.23;3.50;;;;;;;2.22;nan;97763.03;5063291;28;20051;-61
2021/12/06 02:34:51;;;;;;;3.87;3.47;;;;;;;2.22;nan;97770.59;5069733;28;20045;-58
2021/12/06 02:37:20;;;;;;;4.87;3.63;;;;;;;2.16;nan;97761.34;5067401;28;20040;-57
2021/12/06 02:39:46;;;;;;;4.60;3.70;;;;;;;2.20;nan;97764.72;5067179;28;20102;-59
2021/12/06 02:42:15;;;;;;;6.10;4.07;;;;;;;2.16;nan;97761.34;5066288;28;20041;-59
2021/12/06 02:44:41;;;;;;;4.90;3.80;;;;;;;2.16;nan;97756.31;5073766;28;20133;-60
2021/12/06 02:47:07;;;;;;;5.07;3.70;;;;;;;2.19;nan;97750.38;5073719;28;20036;-60
2021/12/06 02:49:33;;;;;;;7.13;5.43;;;;;;;2.16;nan;97747.88;5050732;28;20045;-59
2021/12/06 02:51:59;;;;;;;8.00;5.00;;;;;;;2.16;nan;97752.94;5069379;28;20036;-61
2021/12/06 02:54:25;;;;;;;6.80;3.90;;;;;;;2.13;nan;97753.75;5072467;28;20441;-62
2021/12/06 02:57:37;;;;;;;7.73;4.93;;;;;;;2.08;nan;97749.56;5073919;28;20373;-61
2021/12/06 02:59:42;;;;;;;6.17;3.93;;;;;;;2.13;nan;97751.22;5064036;28;20028;-61
2021/12/06 03:02:14;;;;;;;5.77;4.23;;;;;;;2.15;nan;97752.06;5070110;28;20036;-61
2021/12/06 03:04:41;;;;;;;7.63;4.20;;;;;;;2.10;nan;97751.22;5071411;28;20049;-60
2021/12/06 03:07:08;;;;;;;4.70;3.77;;;;;;;2.14;nan;97752.91;5069432;28;20074;-61
2021/12/06 03:09:37;;;;;;;5.73;4.43;;;;;;;2.15;nan;97751.22;5069315;28;20097;-62
2021/12/06 03:12:06;;;;;;;4.03;3.27;;;;;;;2.14;nan;97760.50;5068837;28;20402;-61
2021/12/06 03:14:36;;;;;;;6.93;3.93;;;;;;;2.18;nan;97757.13;5072111;28;20075;-62
2021/12/06 03:17:05;;;;;;;5.50;4.07;;;;;;;2.16;nan;97768.94;5066755;28;20044;-61
2021/12/06 03:19:31;;;;;;;4.43;3.73;;;;;;;2.14;nan;97773.13;5068534;28;20044;-63
2021/12/06 03:21:57;;;;;;;4.60;3.80;;;;;;;2.19;nan;97784.09;5047036;28;20552;-62
2021/12/06 03:24:23;;;;;;;6.00;4.03;;;;;;;2.20;nan;97778.22;5072059;28;20043;-63
2021/12/06 03:26:50;;;;;;;6.20;4.00;;;;;;;2.10;nan;97793.34;5070371;28;20119;-61
2021/12/06 03:29:16;;;;;;;6.07;3.53;;;;;;;2.18;nan;97797.56;5066131;28;20045;-63
2021/12/06 03:31:42;;;;;;;4.60;4.20;;;;;;;2.18;nan;97796.72;5068702;28;20044;-62
2021/12/06 03:34:09;;;;;;;4.13;3.73;;;;;;;2.20;nan;97798.44;5069804;28;20094;-63
2021/12/06 03:36:37;;;;;;;5.63;3.70;;;;;;;2.25;nan;97803.47;5068912;28;20036;-62
2021/12/06 03:39:08;;;;;;;4.73;3.50;;;;;;;2.19;nan;97808.53;5064581;28;20444;-62
2021/12/06 03:41:34;;;;;;;3.97;3.50;;;;;;;2.20;nan;97813.59;5068865;28;20059;-62
2021/12/06 03:44:00;;;;;;;5.47;3.60;;;;;;;2.23;nan;97808.53;5070051;28;20032;-63
2021/12/06 03:46:28;;;;;;;5.83;3.90;;;;;;;2.30;nan;97811.91;5065811;28;20572;-62
2021/12/06 03:48:53;;;;;;;4.10;3.40;;;;;;;2.26;nan;97815.28;5066334;28;20036;-62
2021/12/06 03:51:19;;;;;;;5.87;4.10;;;;;;;2.30;nan;97817.81;5070201;28;20410;-62
2021/12/06 03:53:45;;;;;;;6.17;3.90;;;;;;;2.27;nan;97819.50;5072618;28;20036;-62
2021/12/06 03:56:13;;;;;;;5.17;4.27;;;;;;;2.22;nan;97811.06;5064945;28;20038;-63
2021/12/06 03:58:38;;;;;;;4.50;4.10;;;;;;;2.32;nan;97820.34;5067835;28;20116;-62
2021/12/06 04:01:04;;;;;;;6.13;4.47;;;;;;;2.30;nan;97824.53;5069629;28;20128;-62
2021/12/06 04:03:32;;;;;;;5.17;4.47;;;;;;;2.35;nan;97820.34;5068113;28;20045;-61
2021/12/06 04:05:58;;;;;;;4.70;3.90;;;;;;;2.22;nan;97832.13;5063916;28;20068;-62
2021/12/06 04:08:25;;;;;;;6.27;4.03;;;;;;;2.24;nan;97833.00;5066060;28;20079;-62
2021/12/06 04:10:50;;;;;;;9.10;5.27;;;;;;;2.21;nan;97832.97;5068844;28;20479;-61
2021/12/06 04:13:16;;;;;;;7.20;5.00;;;;;;;2.26;nan;97841.41;5068478;28;20044;-58
2021/12/06 04:15:44;;;;;;;5.73;4.83;;;;;;;2.27;nan;97842.25;5067396;28;20040;-63
2021/12/06 04:18:10;;;;;;;5.63;5.03;;;;;;;2.25;nan;97844.78;5072645;28;20107;-60
2021/12/06 04:20:36;;;;;;;7.60;4.93;;;;;;;2.29;nan;97850.69;5073264;28;20060;-56
2021/12/06 04:23:04;;;;;;;7.53;5.17;;;;;;;2.29;nan;97853.22;5069872;28;20523;-60
2021/12/06 04:25:29;;;;;;;6.50;4.37;;;;;;;2.33;nan;97854.91;5048704;28;20535;-60
2021/12/06 04:27:56;;;;;;;8.73;4.33;;;;;;;2.29;nan;97853.22;5069290;28;20029;-60
2021/12/06 04:30:24;;;;;;;10.90;4.77;;;;;;;2.34;nan;97846.47;5071477;28;20060;-57
2021/12/06 04:32:53;;;;;;;7.10;4.37;;;;;;;2.37;nan;97846.50;5069193;28;20041;-59
2021/12/06 04:35:19;;;;;;;5.37;4.40;;;;;;;2.49;nan;97853.22;5066431;28;20055;-57
2021/12/06 04:37:44;;;;;;;5.57;4.77;;;;;;;2.44;nan;97865.88;5070430;28;20141;-57
2021/12/06 04:40:11;;;;;;;7.67;4.20;;;;;;;2.50;nan;97870.94;5071034;28;20056;-58
2021/12/06 04:42:37;;;;;;;5.63;4.13;;;;;;;2.52;nan;97858.28;5068155;28;20062;-57
2021/12/06 04:45:03;;;;;;;5.43;3.87;;;;;;;2.48;nan;97866.72;5064838;28;20045;-59
2021/12/06 04:47:29;;;;;;;6.70;4.43;;;;;;;2.50;nan;97868.41;5068698;28;20037;-56
2021/12/06 04:49:55;;;;;;;5.90;4.47;;;;;;;2.48;nan;97866.72;5067594;28;20040;-57
2021/12/06 04:52:20;;;;;;;5.70;4.70;;;;;;;2.48;nan;97875.16;5067395;28;20084;-59
2021/12/06 04:54:51;;;;;;;3.87;3.47;;;;;;;2.49;nan;97876.84;5064209;28;20449;-57
2021/12/06 04:57:23;;;;;;;5.63;3.97;;;;;;;2.50;nan;97885.28;5070326;28;20431;-60
2021/12/06 04:59:56;;;;;;;6.57;4.33;;;;;;;2.54;nan;97884.44;5069727;28;20625;-58
2021/12/06 05:02:30;;;;;;;5.13;3.97;;;;;;;2.49;nan;97883.59;5066905;28;20850;-58
2021/12/06 05:04:59;;;;;;;9.30;5.03;;;;;;;2.43;nan;97883.56;5067001;28;20135;-57
2021/12/06 05:07:32;;;;;;;6.17;4.33;;;;;;;2.40;nan;97886.09;5068905;28;20041;-58
2021/12/06 05:09:58;;;;;;;7.10;4.40;;;;;;;2.39;nan;97880.19;5073640;28;20083;-57
2021/12/06 05:12:27;;;;;;;6.73;4.87;;;;;;;2.37;nan;97889.47;5069865;28;20453;-58
2021/12/06 05:14:53;;;;;;;8.57;4.70;;;;;;;2.37;nan;97886.97;5069290;28;20024;-53
2021/12/06 05:17:18;;;;;;;4.17;3.77;;;;;;;2.34;nan;97883.56;5069673;28;20044;-58
2021/12/06 05:19:44;;;;;;;10.67;5.07;;;;;;;2.33;nan;97886.94;5067115;28;20036;-57
2021/12/06 05:22:10;;;;;;;7.87;4.33;;;;;;;2.41;nan;97888.66;5067127;28;20490;-57
2021/12/06 05:24:36;;;;;;;5.67;5.07;;;;;;;2.38;nan;97890.34;5067368;28;20036;-56
2021/12/06 05:27:01;;;;;;;7.67;6.40;;;;;;;2.38;nan;97895.38;5069444;28;20035;-58
2021/12/06 05:29:29;;;;;;;9.10;5.40;;;;;;;2.33;nan;97890.31;5066705;28;20040;-59
2021/12/06 05:31:57;;;;;;;9.53;5.80;;;;;;;2.34;nan;97891.97;5067193;28;20048;-57
2021/12/06 05:34:31;;;;;;;7.43;4.60;;;;;;;2.40;nan;97896.22;5064142;28;20044;-58
2021/12/06 05:36:57;;;;;;;6.53;4.50;;;;;;;2.35;nan;97901.28;5069219;28;20466;-59
2021/12/06 05:39:27;;;;;;;6.17;4.37;;;;;;;2.36;nan;97902.13;5066461;28;20033;-57
2021/12/06 05:41:52;;;;;;;8.90;4.37;;;;;;;2.37;nan;97903.81;5066972;28;20039;-59
2021/12/06 05:44:18;;;;;;;5.17;3.70;;;;;;;2.40;nan;97904.66;5066268;28;20398;-56
2021/12/06 05:46:43;;;;;;;6.90;4.33;;;;;;;2.39;nan;97913.06;5068479;28;20040;-58
2021/12/06 05:49:09;;;;;;;6.47;3.93;;;;;;;2.48;nan;97918.16;5065995;28;20052;-57
2021/12/06 05:51:34;;;;;;;5.90;4.70;;;;;;;2.55;nan;97924.03;5065827;28;20044;-58
2021/12/06 05:54:00;;;;;;;6.23;4.33;;;;;;;2.43;nan;97935.00;5066251;28;20462;-58
2021/12/06 05:56:25;;;;;;;6.13;4.20;;;;;;;2.43;nan;97929.94;5068227;28;20037;-57
2021/12/06 05:58:51;;;;;;;8.70;4.97;;;;;;;2.53;nan;97936.72;5066049;28;20068;-58
2021/12/06 06:01:16;;;;;;;5.67;4.60;;;;;;;2.48;nan;97924.91;5064980;28;20051;-58
2021/12/06 06:03:42;;;;;;;8.90;5.77;;;;;;;2.53;nan;97929.13;5062862;28;20714;-58
2021/12/06 06:06:07;;;;;;;10.33;5.70;;;;;;;2.46;nan;97934.19;5066433;28;20470;-59
2021/12/06 06:08:32;;;;;;;7.33;5.27;;;;;;;2.51;nan;97937.53;5066106;28;20048;-59
2021/12/06 06:10:58;;;;;;;5.23;4.43;;;;;;;2.45;nan;97938.38;5066708;28;20037;-59
2021/12/06 06:13:24;;;;;;;4.77;4.17;;;;;;;2.45;nan;97935.00;5068713;28;20041;-58
2021/12/06 06:15:51;;;;;;;4.43;3.97;;;;;;;2.46;nan;97937.53;5067083;28;20048;-59
2021/12/06 06:18:18;;;;;;;4.50;3.87;;;;;;;2.42;nan;97938.38;5065369;28;20036;-58
2021/12/06 06:20:52;;;;;;;4.63;3.63;;;;;;;2.45;nan;97943.44;5061638;28;20037;-58
2021/12/06 06:23:18;;;;;;;5.80;4.63;;;;;;;2.38;nan;97940.91;5064840;28;20131;-59
2021/12/06 06:25:43;;;;;;;4.20;3.80;;;;;;;2.37;nan;97947.66;5065656;28;20621;-57
2021/12/06 06:28:09;;;;;;;5.80;4.60;;;;;;;2.35;nan;97945.94;5066233;28;20119;-59
2021/12/06 06:30:36;;;;;;;5.33;3.80;;;;;;;2.33;nan;97952.69;5064367;28;20044;-60
2021/12/06 06:33:02;;;;;;;5.83;4.20;;;;;;;2.28;nan;97951.00;5066869;28;20498;-60
2021/12/06 06:35:27;;;;;;;5.93;3.83;;;;;;;2.26;nan;97961.94;5041372;28;20036;-59
2021/12/06 06:37:53;;;;;;;4.13;3.73;;;;;;;2.25;nan;97957.72;5066028;28;20056;-55
2021/12/06 06:40:19;;;;;;;6.13;4.30;;;;;;;2.24;nan;97966.16;5067479;28;20040;-55
2021/12/06 06:42:45;;;;;;;5.17;3.87;;;;;;;2.35;nan;97978.81;5069361;28;20441;-54
2021/12/06 06:45:13;;;;;;;9.20;4.23;;;;;;;2.38;nan;97978.84;5067965;28;20486;-59
2021/12/06 06:47:39;;;;;;;4.90;3.87;;;;;;;2.34;nan;97985.56;5065314;28;20044;-58
2021/12/06 06:50:05;;;;;;;4.00;3.60;;;;;;;2.35;nan;97994.84;5064577;28;20507;-58
2021/12/06 06:52:31;;;;;;;5.80;5.27;;;;;;;2.38;nan;97997.38;5065156;28;20572;-56
2021/12/06 06:54:56;;;;;;;5.73;4.70;;;;;;;2.40;nan;98005.81;5065744;28;20135;-55
2021/12/06 06:57:22;;;;;;;5.57;4.17;;;;;;;2.42;nan;98004.13;5065383;28;20060;-58
2021/12/06 06:59:48;;;;;;;4.53;3.80;;;;;;;2.45;nan;98010.91;5068158;28;20474;-57
2021/12/06 07:02:14;;;;;;;6.07;4.60;;;;;;;2.48;nan;98010.91;5067667;28;20075;-58
2021/12/06 07:04:39;;;;;;;6.40;5.40;;;;;;;2.51;nan;98021.88;5064720;28;20056;-61
2021/12/06 07:07:05;;;;;;;8.80;6.90;;;;;;;2.53;nan;98017.66;5064536;28;20095;-58
2021/12/06 07:09:30;;;;;;;9.77;5.90;;;;;;;2.57;nan;98026.97;5069904;28;20514;-61
2021/12/06 07:11:58;;;;;;;8.63;5.57;;;;;;;2.65;nan;98037.09;5069896;28;20067;-58
2021/12/06 07:14:24;;;;;;;9.70;5.13;;;;;;;2.63;nan;98029.47;5065662;28;20048;-59
2021/12/06 07:16:50;;;;;;;7.37;5.93;;;;;;;2.69;nan;98037.09;5064170;28;20039;-60
2021/12/06 07:19:15;;;;;;;8.63;5.70;;;;;;;2.80;nan;98038.81;5066961;28;20044;-58
2021/12/06 07:21:41;;;;;;;9.87;6.67;;;;;;;2.71;nan;98043.03;5066938;28;20036;-58
2021/12/06 07:24:07;;;;;;;11.20;6.93;;;;;;;2.78;nan;98048.09;5063019;28;20044;-60
2021/12/06 07:26:32;;;;;;;11.20;7.67;;;;;;;2.83;nan;98044.72;5064495;28;20143;-58
2021/12/06 07:28:59;;;;;;;13.80;9.20;;;;;;;2.80;nan;98052.28;5065980;28;20044;-60
2021/12/06 07:31:25;;;;;;;10.57;7.80;;;;;;;2.85;nan;98052.31;5069505;28;20427;-59
2021/12/06 07:33:52;;;;;;;15.20;6.37;;;;;;;2.79;nan;98048.09;5066633;28;20036;-56
2021/12/06 07:36:20;;;;;;;8.07;5.73;;;;;;;2.90;nan;98055.69;5071944;28;20044;-58
2021/12/06 07:38:46;;;;;;;10.40;6.67;;;;;;;2.86;nan;98061.59;5072459;28;20051;-57
2021/12/06 07:41:14;;;;;;;11.70;7.20;;;;;;;2.85;nan;98058.22;5068457;28;20449;-60
2021/12/06 07:43:40;;;;;;;10.23;6.83;;;;;;;2.95;nan;98065.00;5066919;28;20390;-58
2021/12/06 07:46:07;;;;;;;8.70;6.30;;;;;;;2.86;nan;98056.53;5069037;28;20028;-59
2021/12/06 07:48:33;;;;;;;8.73;5.50;;;;;;;2.89;nan;98042.19;5069910;28;20045;-58
2021/12/06 07:51:01;;;;;;;8.23;5.17;;;;;;;2.99;nan;98058.25;5067637;28;20037;-61
2021/12/06 07:53:29;;;;;;;8.83;5.47;;;;;;;2.99;nan;98048.13;5067275;28;20059;-61
2021/12/06 07:55:55;;;;;;;8.03;5.07;;;;;;;2.90;nan;98043.03;5051231;28;20040;-59
2021/12/06 07:58:20;;;;;;;8.20;6.10;;;;;;;2.94;nan;98054.88;5068418;28;20047;-60
2021/12/06 08:00:47;;;;;;;5.80;4.50;;;;;;;2.98;nan;98051.50;5065214;28;20040;-61
2021/12/06 08:03:13;;;;;;;5.50;4.90;;;;;;;2.92;nan;98059.94;5063753;28;20060;-57
2021/12/06 08:05:41;;;;;;;6.40;4.90;;;;;;;2.94;nan;98060.78;5069683;28;20059;-60
2021/12/06 08:08:34;;;;;;;6.30;4.67;;;;;;;3.05;nan;98063.34;5068732;28;20036;-59
2021/12/06 08:11:08;;;;;;;8.30;5.43;;;;;;;3.05;nan;98053.22;5062883;28;20071;-58
2021/12/06 08:13:36;;;;;;;7.93;5.23;;;;;;;2.98;nan;98067.53;5066636;28;20757;-58
2021/12/06 08:16:06;;;;;;;7.13;5.00;;;;;;;2.94;nan;98057.41;5068783;28;20429;-59
2021/12/06 08:18:32;;;;;;;8.03;4.27;;;;;;;2.99;nan;98068.38;5069456;28;20036;-60
2021/12/06 08:21:00;;;;;;;4.93;4.27;;;;;;;3.00;nan;98072.63;5068326;28;20040;-59
2021/12/06 08:23:26;;;;;;;9.27;4.90;;;;;;;2.97;nan;98070.91;5041085;28;20033;-57
2021/12/06 08:25:53;;;;;;;9.20;4.87;;;;;;;2.98;nan;98070.06;5046696;28;20040;-62
2021/12/06 08:28:20;;;;;;;5.97;4.97;;;;;;;3.06;nan;98060.78;5068377;28;20044;-59
2021/12/06 08:30:47;;;;;;;6.47;4.80;;;;;;;3.00;nan;98067.53;5074636;28;20509;-58
2021/12/06 08:33:13;;;;;;;6.93;4.73;;;;;;;3.06;nan;98059.94;5088186;28;20047;-59
2021/12/06 08:35:42;;;;;;;5.87;4.90;;;;;;;3.15;nan;98062.50;5089451;28;20040;-59
2021/12/06 08:38:09;;;;;;;6.30;5.03;;;;;;;3.10;nan;98054.03;5088790;28;20036;-58
2021/12/06 08:40:35;;;;;;;6.13;4.83;;;;;;;3.19;nan;98065.03;5087474;28;20043;-59
2021/12/06 08:43:01;;;;;;;7.03;4.83;;;;;;;3.21;nan;98062.50;5088800;28;20080;-59
2021/12/06 08:45:28;;;;;;;5.10;4.03;;;;;;;3.11;nan;98079.38;5091319;28;20078;-58
2021/12/06 08:47:54;;;;;;;5.43;4.60;;;;;;;3.13;nan;98072.63;5090374;28;20047;-56
2021/12/06 08:50:22;;;;;;;5.50;3.80;;;;;;;3.19;nan;98082.75;5087668;28;20036;-58
2021/12/06 08:52:49;;;;;;;4.50;3.93;;;;;;;3.18;nan;98080.25;5090736;28;20067;-57
2021/12/06 08:55:15;;;;;;;6.70;4.30;;;;;;;3.20;nan;98097.13;5091179;28;20086;-59
2021/12/06 08:57:41;;;;;;;7.53;4.83;;;;;;;3.19;nan;98092.88;5088746;28;20105;-56
2021/12/06 09:00:10;;;;;;;6.97;4.50;;;;;;;3.29;nan;98097.97;5089445;28;20951;-57
2021/12/06 09:02:35;;;;;;;6.73;4.83;;;;;;;3.30;nan;98090.38;5091911;28;20036;-56
2021/12/06 09:05:01;;;;;;;7.57;5.03;;;;;;;3.35;nan;98103.06;5091067;28;20113;-55
2021/12/06 09:07:26;;;;;;;5.40;4.90;;;;;;;3.40;nan;98106.41;5088091;28;20036;-56
2021/12/06 09:09:55;;;;;;;6.30;4.13;;;;;;;3.51;nan;98103.06;5087203;28;20032;-61
2021/12/06 09:12:27;;;;;;;6.17;4.30;;;;;;;3.77;nan;98097.16;5090520;28;20127;-57
2021/12/06 09:14:54;;;;;;;7.63;4.53;;;;;;;3.78;nan;98098.84;5068124;28;20040;-57
2021/12/06 09:17:21;;;;;;;6.43;3.73;;;;;;;3.86;nan;98102.22;5086482;28;20036;-58
2021/12/06 09:19:48;;;;;;;5.30;3.57;;;;;;;3.82;nan;98108.13;5088073;28;20064;-59
2021/12/06 09:22:14;;;;;;;4.57;3.70;;;;;;;3.82;nan;98115.75;5087677;28;20050;-59
2021/12/06 09:24:40;;;;;;;6.97;3.43;;;;;;;3.86;nan;98109.81;5087204;28;20129;-57
2021/12/06 09:27:07;;;;;;;6.73;4.70;;;;;;;3.93;nan;98119.09;5091117;28;20056;-59
2021/12/06 09:29:36;;;;;;;4.93;3.67;;;;;;;3.94;nan;98125.88;5090003;28;20040;-59
2021/12/06 09:32:07;;;;;;;4.80;3.60;;;;;;;3.93;nan;98114.88;5087437;28;20398;-61
2021/12/06 09:34:34;;;;;;;5.43;3.90;;;;;;;4.10;nan;98114.84;5087153;28;20521;-60
2021/12/06 09:37:00;;;;;;;5.50;4.70;;;;;;;3.95;nan;98109.78;5091193;28;20541;-60
2021/12/06 09:39:26;;;;;;;7.50;3.60;;;;;;;3.85;nan;98111.50;5089352;28;20050;-58
2021/12/06 09:41:52;;;;;;;6.00;4.50;;;;;;;3.88;nan;98106.41;5088083;28;20386;-60
2021/12/06 09:44:18;;;;;;;4.93;4.00;;;;;;;3.86;nan;98110.63;5089991;28;20035;-60
2021/12/06 09:46:44;;;;;;;5.53;3.97;;;;;;;3.79;nan;98115.72;5092752;28;20036;-58
2021/12/06 09:49:16;;;;;;;5.90;4.30;;;;;;;3.89;nan;98118.25;5089556;28;20044;-59
2021/12/06 09:51:44;;;;;;;3.97;3.53;;;;;;;3.88;nan;98108.09;5086895;28;20491;-59
2021/12/06 09:54:11;;;;;;;6.20;4.33;;;;;;;3.98;nan;98105.56;5087051;28;20047;-59
2021/12/06 09:56:42;;;;;;;6.23;3.67;;;;;;;4.04;nan;98109.78;5091543;28;20032;-59
2021/12/06 09:59:11;;;;;;;7.10;3.40;;;;;;;4.05;nan;98101.31;5087628;28;20040;-61
2021/12/06 10:01:41;;;;;;;5.67;4.83;;;;;;;4.23;nan;98106.38;5085550;28;20448;-58
2021/12/06 10:04:09;;;;;;;6.07;3.53;;;;;;;4.25;nan;98086.91;5089022;28;20064;-60
2021/12/06 10:06:35;;;;;;;6.63;4.33;;;;;;;4.33;nan;98104.66;5090318;28;20096;-60
2021/12/06 10:09:06;;;;;;;6.33;4.47;;;;;;;4.11;nan;98091.19;5091153;28;20108;-59
2021/12/06 10:11:32;;;;;;;9.53;4.17;;;;;;;4.14;nan;98091.16;5089048;28;20043;-59
2021/12/06 10:13:57;;;;;;;6.37;3.77;;;;;;;4.17;nan;98101.28;5090484;28;20036;-60
2021/12/06 10:16:23;;;;;;;5.67;4.37;;;;;;;4.06;nan;98098.78;5086705;28;20040;-60
2021/12/06 10:18:50;;;;;;;5.10;4.03;;;;;;;3.98;nan;98092.03;5084296;28;20490;-58
2021/12/06 10:21:17;;;;;;;6.93;4.60;;;;;;;3.96;nan;98097.13;5085679;28;20039;-59
2021/12/06 10:23:43;;;;;;;5.23;3.60;;;;;;;3.93;nan;98097.13;5089129;28;20039;-61
2021/12/06 10:26:12;;;;;;;6.47;4.47;;;;;;;3.99;nan;98099.63;5089061;28;20111;-59
2021/12/06 10:28:41;;;;;;;6.43;5.07;;;;;;;4.08;nan;98101.31;5086006;28;20044;-60
2021/12/06 10:31:08;;;;;;;7.73;4.43;;;;;;;4.07;nan;98092.84;5086911;28;20126;-60
2021/12/06 10:33:37;;;;;;;4.40;3.73;;;;;;;4.10;nan;98092.03;5088987;28;20102;-60
2021/12/06 10:36:09;;;;;;;5.67;4.47;;;;;;;4.04;nan;98087.78;5088521;28;20123;-59
2021/12/06 10:38:38;;;;;;;14.33;5.63;;;;;;;4.12;nan;98091.16;5084648;28;20055;-59
2021/12/06 10:41:10;;;;;;;7.03;5.50;;;;;;;4.13;nan;98092.84;5086724;28;20117;-60
2021/12/06 10:43:37;;;;;;;11.00;7.20;;;;;;;4.17;nan;98091.16;5088096;28;20048;-60
2021/12/06 10:46:05;;;;;;;8.63;3.93;;;;;;;3.97;nan;98090.34;5087436;28;20040;-61
2021/12/06 10:48:33;;;;;;;6.97;4.70;;;;;;;4.07;nan;98097.09;5084492;28;20457;-60
2021/12/06 10:51:10;;;;;;;5.00;4.10;;;;;;;4.11;nan;98094.56;5085380;28;20054;-58
2021/12/06 10:53:42;;;;;;;6.23;5.20;;;;;;;4.13;nan;98089.47;5087944;28;20047;-60
2021/12/06 10:56:17;;;;;;;9.90;5.20;;;;;;;4.20;nan;98077.63;5085248;28;20504;-58
2021/12/06 10:58:44;;;;;;;6.47;4.45;;;;;;;4.04;nan;98070.03;5083457;28;20134;-59
2021/12/06 11:01:13;;;;;;;8.43;4.60;;;;;;;4.12;nan;98075.94;5088868;28;20040;-60
2021/12/06 11:03:42;;;;;;;3.70;3.30;;;;;;;4.03;nan;98077.69;5038309;28;1214785;-60
2021/12/06 11:06:16;;;;;;;6.57;3.80;;;;;;;4.02;nan;98083.59;5069541;28;20562;-58
2021/12/06 11:08:42;;;;;;;5.93;4.23;;;;;;;4.11;nan;98074.28;5068831;28;20739;-56
2021/12/06 11:11:14;;;;;;;7.13;4.53;;;;;;;4.16;nan;98075.94;5072992;28;20036;-60
2021/12/06 11:13:46;;;;;;;7.13;4.23;;;;;;;4.24;nan;98071.69;5065011;28;20040;-59
2021/12/06 11:16:18;;;;;;;14.87;5.47;;;;;;;4.36;nan;98075.03;5064190;28;20101;-59
2021/12/06 11:18:46;;;;;;;4.37;3.70;;;;;;;4.30;nan;98081.81;5068320;28;20060;-61
2021/12/06 11:21:23;;;;;;;7.67;3.93;;;;;;;4.31;nan;98071.66;5074110;28;20043;-61
2021/12/06 11:24:14;;;;;;;5.83;4.63;;;;;;;4.39;nan;98072.47;5070829;28;20090;-61
2021/12/06 11:26:47;;;;;;;8.10;5.30;;;;;;;4.43;nan;98071.63;5064233;28;20222;-60
2021/12/06 11:29:17;;;;;;;7.43;4.63;;;;;;;4.44;nan;98069.94;5049869;28;20047;-59
2021/12/06 11:31:50;;;;;;;7.40;3.77;;;;;;;4.36;nan;98072.50;5067736;28;20131;-60
2021/12/06 11:34:15;;;;;;;7.17;4.33;;;;;;;4.25;nan;98076.75;5067455;28;20048;-58
2021/12/06 11:36:42;;;;;;;9.63;4.30;;;;;;;4.22;nan;98078.44;5067770;28;20059;-60
2021/12/06 11:39:11;;;;;;;12.10;4.50;;;;;;;4.17;nan;98073.38;5071429;28;20410;-59
2021/12/06 11:41:39;;;;;;;6.40;5.07;;;;;;;4.16;nan;98081.03;5069861;28;20048;-58
2021/12/06 11:44:33;;;;;;;5.60;4.83;;;;;;;4.16;nan;98076.78;5067185;28;20095;-60
2021/12/06 11:47:08;;;;;;;5.80;3.87;;;;;;;4.20;nan;98087.78;5058862;28;20041;-60
2021/12/06 11:49:45;;;;;;;6.27;4.57;;;;;;;4.18;nan;98079.31;5070225;28;20049;-57
2021/12/06 11:52:18;;;;;;;5.13;4.30;;;;;;;4.07;nan;98076.81;5068342;28;20037;-59
2021/12/06 11:54:51;;;;;;;11.90;7.67;;;;;;;4.13;nan;98086.94;5066974;28;20040;-59
2021/12/06 11:57:21;;;;;;;6.30;5.00;;;;;;;4.22;nan;98079.31;5068683;28;20112;-59
2021/12/06 12:00:15;;;;;;;6.87;5.13;;;;;;;4.37;nan;98078.44;5062923;28;20125;-59
2021/12/06 12:02:48;;;;;;;9.47;5.47;;;;;;;4.56;nan;98073.25;5061191;28;20048;-59
2021/12/06 12:05:32;;;;;;;6.40;4.63;;;;;;;4.64;nan;98070.69;5065713;28;20067;-62
2021/12/06 12:08:09;;;;;;;9.40;4.53;;;;;;;4.52;nan;98070.75;5070327;28;20051;-57
2021/12/06 12:10:46;;;;;;;6.60;4.73;;;;;;;4.55;nan;98066.50;5068953;28;20032;-61
2021/12/06 12:13:32;;;;;;;8.33;4.87;;;;;;;4.66;nan;98079.16;5066557;28;20702;-59
2021/12/06 12:16:02;;;;;;;;;;;;;;;4.55;nan;98071.56;5059142;28;20044;-58
2021/12/06 12:18:28;;;;;;;5.67;4.30;;;;;;;4.51;nan;98084.28;5069824;28;19995;-62